Time;durP1;ratioP1;P1;durP2;ratioP2;P2;SDS_P1;SDS_P2;PMS_P1;PMS_P2;Temp;Humidity;BMP_temperature;BMP_pressure;BME280_temperature;BME280_humidity;BME280_pressure;Samples;Min_cycle;Max_cycle;Signal;HPM_P1;HPM_P2
2023/03/10 00:01:19;;;;;;;29.83;14.05;;;2.10;99.90;;;;;;4976908;28;93216;-75
2023/03/10 00:03:47;;;;;;;28.65;14.73;;;2.00;99.90;;;;;;4992116;28;98315;-75
2023/03/10 00:06:17;;;;;;;34.55;17.38;;;2.00;99.90;;;;;;4994516;28;95491;-75
2023/03/10 00:08:45;;;;;;;28.98;13.90;;;2.10;99.90;;;;;;4998116;28;92411;-75
2023/03/10 00:11:12;;;;;;;29.10;15.23;;;2.00;99.90;;;;;;4976686;28;92489;-76
2023/03/10 00:13:40;;;;;;;35.05;18.10;;;2.00;99.90;;;;;;4960282;28;95684;-75
2023/03/10 00:16:11;;;;;;;35.40;17.15;;;2.00;99.90;;;;;;4976614;28;96035;-75
2023/03/10 00:18:40;;;;;;;33.10;18.08;;;2.00;99.90;;;;;;4977006;28;92561;-76
2023/03/10 00:21:12;;;;;;;41.75;16.88;;;2.00;99.90;;;;;;4977144;28;93477;-76
2023/03/10 00:23:39;;;;;;;31.35;16.05;;;2.10;99.90;;;;;;4961732;28;93037;-76
2023/03/10 00:26:07;;;;;;;32.45;14.45;;;2.10;99.90;;;;;;4961342;28;102325;-76
2023/03/10 00:28:33;;;;;;;30.90;15.57;;;2.10;99.90;;;;;;4975461;28;94872;-75
2023/03/10 00:31:03;;;;;;;30.38;15.80;;;2.10;99.90;;;;;;4960319;28;92612;-75
2023/03/10 00:33:32;;;;;;;30.88;16.27;;;2.10;99.90;;;;;;4961232;28;93050;-75
2023/03/10 00:36:20;;;;;;;29.27;13.63;;;2.10;99.90;;;;;;4976588;28;96067;-75
2023/03/10 00:38:48;;;;;;;28.33;15.88;;;2.00;99.90;;;;;;4960092;28;92524;-75
2023/03/10 00:41:21;;;;;;;31.42;15.13;;;2.00;99.90;;;;;;4976469;28;92647;-75
2023/03/10 00:43:49;;;;;;;31.08;14.85;;;2.10;99.90;;;;;;4976610;28;96385;-75
2023/03/10 00:46:16;;;;;;;30.17;15.27;;;2.10;99.90;;;;;;4960164;28;95745;-75
2023/03/10 00:48:43;;;;;;;29.90;14.27;;;2.00;99.90;;;;;;4961385;28;92507;-76
2023/03/10 00:51:11;;;;;;;33.40;13.70;;;2.10;99.90;;;;;;4976247;28;92520;-75
2023/03/10 00:53:39;;;;;;;28.58;13.63;;;2.00;99.90;;;;;;4975067;28;98264;-76
2023/03/10 00:56:16;;;;;;;21.50;11.23;;;2.00;99.90;;;;;;4960070;28;98144;-75
2023/03/10 00:58:44;;;;;;;27.27;13.52;;;2.00;99.90;;;;;;4976706;28;92395;-76
2023/03/10 01:01:38;;;;;;;29.58;12.95;;;2.00;99.90;;;;;;4976560;28;93379;-76
2023/03/10 01:04:14;;;;;;;28.23;15.13;;;2.00;99.90;;;;;;4976205;28;95897;-76
2023/03/10 01:06:43;;;;;;;23.70;13.25;;;2.00;99.90;;;;;;4943512;28;95866;-76
2023/03/10 01:09:10;;;;;;;26.00;11.88;;;2.00;99.90;;;;;;4976370;28;92648;-75
2023/03/10 01:11:37;;;;;;;24.52;11.32;;;2.00;99.90;;;;;;4995953;28;91810;-76
2023/03/10 01:14:06;;;;;;;30.70;14.27;;;2.00;99.90;;;;;;5000408;28;93194;-75
2023/03/10 01:16:34;;;;;;;30.63;15.15;;;2.00;99.90;;;;;;5000258;28;92873;-76
2023/03/10 01:19:01;;;;;;;35.15;14.60;;;2.00;99.90;;;;;;4980758;28;94935;-76
2023/03/10 01:21:31;;;;;;;35.22;16.27;;;2.10;99.90;;;;;;4962981;28;92613;-76
2023/03/10 01:23:59;;;;;;;30.10;14.60;;;2.00;99.90;;;;;;4995961;28;96292;-76
2023/03/10 01:26:26;;;;;;;30.05;14.55;;;2.10;99.90;;;;;;4995622;28;95750;-76
2023/03/10 01:28:53;;;;;;;33.58;17.75;;;2.00;99.90;;;;;;4997297;28;92453;-76
2023/03/10 01:31:20;;;;;;;28.63;15.30;;;2.10;99.90;;;;;;4997137;28;92431;-76
2023/03/10 01:33:47;;;;;;;32.35;16.17;;;2.10;99.90;;;;;;4997048;28;93168;-76
2023/03/10 01:36:21;;;;;;;32.45;15.85;;;2.10;99.90;;;;;;4979289;28;94138;-76
2023/03/10 01:38:48;;;;;;;31.63;15.17;;;2.10;99.90;;;;;;4979123;28;92486;-76
2023/03/10 01:41:16;;;;;;;40.97;15.57;;;2.10;99.90;;;;;;4979257;28;93041;-76
2023/03/10 01:43:45;;;;;;;34.58;18.90;;;2.10;99.90;;;;;;4977751;28;98622;-76
2023/03/10 01:46:34;;;;;;;28.73;14.85;;;2.10;99.90;;;;;;4978841;28;98127;-76
2023/03/10 01:49:13;;;;;;;26.33;12.02;;;2.10;99.90;;;;;;4979423;28;92494;-76
2023/03/10 01:51:44;;;;;;;32.42;17.20;;;2.10;99.90;;;;;;4996748;28;92386;-76
2023/03/10 01:54:19;;;;;;;36.85;18.42;;;2.00;99.90;;;;;;4978799;28;95584;-76
2023/03/10 01:56:48;;;;;;;32.78;14.63;;;2.10;99.90;;;;;;4996874;28;93136;-76
2023/03/10 01:59:15;;;;;;;34.55;18.40;;;2.10;99.90;;;;;;4995425;28;92584;-76
2023/03/10 02:01:42;;;;;;;34.20;18.50;;;2.10;99.90;;;;;;4979200;28;91764;-76
2023/03/10 02:04:22;;;;;;;36.20;18.75;;;2.10;99.90;;;;;;4978768;28;95747;-76
2023/03/10 02:06:50;;;;;;;19.73;11.15;;;2.20;99.90;;;;;;4978492;28;95634;-76
2023/03/10 02:09:18;;;;;;;36.20;17.27;;;2.10;99.90;;;;;;4977230;28;94861;-76
2023/03/10 02:11:48;;;;;;;35.85;18.00;;;2.10;99.90;;;;;;4978252;28;92546;-76
2023/03/10 02:14:15;;;;;;;37.10;17.38;;;2.10;99.90;;;;;;4978255;28;95721;-76
2023/03/10 02:16:42;;;;;;;42.38;18.48;;;2.10;99.90;;;;;;4978108;28;95582;-76
2023/03/10 02:19:30;;;;;;;41.40;20.85;;;2.10;99.90;;;;;;4978579;28;92553;-76
2023/03/10 02:22:16;;;;;;;39.38;19.08;;;2.10;99.90;;;;;;4978682;28;92581;-76
2023/03/10 02:24:48;;;;;;;41.97;19.63;;;2.10;99.90;;;;;;4977886;28;95562;-76
2023/03/10 02:27:18;;;;;;;41.78;19.40;;;2.10;99.90;;;;;;4978432;28;95564;-76
2023/03/10 02:29:59;;;;;;;44.03;21.02;;;2.10;99.90;;;;;;4996392;28;92884;-76
2023/03/10 02:32:34;;;;;;;44.22;19.40;;;2.20;99.90;;;;;;4993522;28;92851;-76
2023/03/10 02:35:02;;;;;;;43.30;19.63;;;2.20;99.90;;;;;;4976863;28;98310;-76
2023/03/10 02:37:34;;;;;;;33.05;15.50;;;2.10;99.90;;;;;;4977550;28;96816;-76
2023/03/10 02:40:01;;;;;;;55.00;19.15;;;2.10;99.90;;;;;;4978098;28;92487;-76
2023/03/10 02:42:34;;;;;;;41.40;17.48;;;2.10;99.90;;;;;;4961705;28;92566;-76
2023/03/10 02:45:03;;;;;;;41.87;19.87;;;2.10;99.90;;;;;;4977914;28;95462;-76
2023/03/10 02:47:31;;;;;;;44.03;18.50;;;2.10;99.90;;;;;;4977667;28;95702;-76
2023/03/10 02:49:58;;;;;;;40.40;19.80;;;2.10;99.90;;;;;;4977934;28;92401;-75
2023/03/10 02:52:36;;;;;;;31.20;15.43;;;2.10;99.90;;;;;;4978254;28;91773;-75
2023/03/10 02:55:03;;;;;;;42.67;18.80;;;2.10;99.90;;;;;;4994406;28;95978;-75
2023/03/10 02:57:31;;;;;;;40.17;18.50;;;2.10;99.90;;;;;;4977504;28;95591;-75
2023/03/10 02:59:59;;;;;;;38.97;17.80;;;2.00;99.90;;;;;;4993457;28;95388;-75
2023/03/10 03:02:26;;;;;;;39.03;17.63;;;2.00;99.90;;;;;;4995768;28;93258;-75
2023/03/10 03:04:53;;;;;;;30.90;12.38;;;2.00;99.90;;;;;;4978097;28;93375;-75
2023/03/10 03:07:20;;;;;;;39.88;16.98;;;2.00;99.90;;;;;;4977451;28;95326;-75
2023/03/10 03:09:47;;;;;;;34.28;16.13;;;1.90;99.90;;;;;;4993867;28;92584;-76
2023/03/10 03:12:14;;;;;;;37.70;13.90;;;1.90;99.90;;;;;;4961758;28;92401;-76
2023/03/10 03:14:41;;;;;;;37.72;14.38;;;1.90;99.90;;;;;;4977296;28;96245;-75
2023/03/10 03:17:08;;;;;;;35.35;17.50;;;1.90;99.90;;;;;;4977905;28;93032;-75
2023/03/10 03:19:35;;;;;;;37.70;18.48;;;1.90;99.90;;;;;;4977488;28;92520;-76
2023/03/10 03:22:01;;;;;;;31.88;12.13;;;1.80;99.90;;;;;;4961377;28;92459;-76
2023/03/10 03:24:30;;;;;;;42.83;16.42;;;1.80;99.90;;;;;;4976234;28;98261;-76
2023/03/10 03:26:58;;;;;;;34.55;15.32;;;1.80;99.90;;;;;;4961342;28;98006;-76
2023/03/10 03:29:27;;;;;;;39.85;15.85;;;1.80;99.90;;;;;;4995013;28;92379;-76
2023/03/10 03:31:54;;;;;;;34.22;13.18;;;1.70;99.90;;;;;;4977245;28;93152;-76
2023/03/10 03:34:25;;;;;;;20.95;8.98;;;1.80;99.90;;;;;;4977751;28;95956;-76
2023/03/10 03:36:55;;;;;;;37.72;15.55;;;1.80;99.90;;;;;;4977935;28;95465;-76
2023/03/10 03:39:29;;;;;;;32.03;13.88;;;1.80;99.90;;;;;;4993793;28;92461;-76
2023/03/10 03:41:59;;;;;;;36.42;14.77;;;1.70;99.90;;;;;;4978067;28;91735;-76
2023/03/10 03:44:31;;;;;;;27.38;11.27;;;1.70;99.90;;;;;;4976985;28;95579;-76
2023/03/10 03:46:59;;;;;;;29.05;12.30;;;1.70;99.90;;;;;;4977443;28;96206;-77
2023/03/10 03:49:26;;;;;;;29.33;12.05;;;1.70;99.90;;;;;;4975953;28;94798;-77
2023/03/10 03:51:54;;;;;;;33.13;13.05;;;1.70;99.90;;;;;;4977058;28;92530;-77
2023/03/10 03:54:22;;;;;;;32.63;13.43;;;1.70;99.90;;;;;;4976982;28;96072;-77
2023/03/10 03:56:49;;;;;;;31.15;12.75;;;1.70;99.90;;;;;;4976593;28;94827;-77
2023/03/10 03:59:16;;;;;;;33.38;13.57;;;1.70;99.90;;;;;;4960709;28;92468;-77
2023/03/10 04:01:43;;;;;;;33.25;14.38;;;1.70;99.90;;;;;;4976660;28;92930;-77
2023/03/10 04:04:11;;;;;;;35.53;14.70;;;1.70;99.90;;;;;;4976815;28;95543;-77
2023/03/10 04:06:38;;;;;;;38.10;14.32;;;1.70;99.90;;;;;;4976968;28;95226;-77
2023/03/10 04:09:09;;;;;;;30.73;13.55;;;1.70;99.90;;;;;;4976950;28;92533;-78
2023/03/10 04:11:37;;;;;;;32.55;13.50;;;1.70;99.90;;;;;;4957531;28;93772;-78
2023/03/10 04:14:05;;;;;;;27.73;12.90;;;1.70;99.90;;;;;;4952526;28;96788;-78
2023/03/10 04:16:32;;;;;;;27.70;11.57;;;1.70;99.90;;;;;;4953684;28;97812;-78
2023/03/10 04:19:00;;;;;;;31.95;14.25;;;1.70;99.90;;;;;;4953814;28;92738;-78
2023/03/10 04:21:28;;;;;;;31.88;13.20;;;1.70;99.90;;;;;;4954047;28;92495;-78
2023/03/10 04:23:57;;;;;;;30.85;13.38;;;1.70;99.90;;;;;;4969684;28;96201;-78
2023/03/10 04:26:28;;;;;;;25.20;11.90;;;1.70;99.90;;;;;;4953745;28;96515;-78
2023/03/10 04:28:57;;;;;;;30.27;15.35;;;1.70;99.90;;;;;;4969936;28;92697;-78
2023/03/10 04:31:26;;;;;;;31.25;14.68;;;1.70;99.90;;;;;;4954023;28;91855;-78
2023/03/10 04:33:53;;;;;;;22.73;10.43;;;1.80;99.90;;;;;;4953493;28;95685;-78
2023/03/10 04:36:21;;;;;;;31.25;12.65;;;1.80;99.90;;;;;;4953594;28;95885;-78
2023/03/10 04:38:52;;;;;;;32.65;13.15;;;1.80;99.90;;;;;;4952263;28;95485;-78
2023/03/10 04:41:21;;;;;;;32.45;14.85;;;1.80;99.90;;;;;;4953618;28;92523;-78
2023/03/10 04:43:48;;;;;;;30.77;11.98;;;1.80;99.90;;;;;;4953313;28;96231;-78
2023/03/10 04:46:17;;;;;;;33.60;15.55;;;1.80;99.90;;;;;;4953465;28;95785;-78
2023/03/10 04:48:45;;;;;;;38.65;15.20;;;1.80;99.90;;;;;;4969807;28;92705;-78
2023/03/10 04:51:12;;;;;;;38.63;15.02;;;1.80;99.90;;;;;;4970085;28;92624;-78
2023/03/10 04:53:46;;;;;;;41.50;19.27;;;1.80;99.90;;;;;;4969556;28;94849;-79
2023/03/10 04:56:14;;;;;;;41.05;14.20;;;1.80;99.90;;;;;;4956671;28;95469;-78
2023/03/10 04:58:42;;;;;;;41.38;14.50;;;1.80;99.90;;;;;;4956723;28;92581;-79
2023/03/10 05:01:10;;;;;;;44.97;16.67;;;1.80;99.90;;;;;;4956641;28;92588;-78
2023/03/10 05:03:43;;;;;;;40.08;15.18;;;1.70;99.90;;;;;;4955358;28;98086;-79
2023/03/10 05:06:14;;;;;;;44.05;17.65;;;1.70;99.90;;;;;;4956586;28;98311;-79
2023/03/10 05:08:44;;;;;;;43.35;16.80;;;1.60;99.90;;;;;;4972899;28;93109;-79
2023/03/10 05:11:12;;;;;;;47.63;17.52;;;1.60;99.90;;;;;;4968818;28;93485;-79
2023/03/10 05:13:40;;;;;;;43.50;15.07;;;1.60;99.90;;;;;;4975856;28;95870;-79
2023/03/10 05:16:13;;;;;;;47.97;16.95;;;1.70;99.90;;;;;;4959840;28;96015;-79
2023/03/10 05:18:40;;;;;;;51.17;16.05;;;1.60;99.90;;;;;;4976104;28;92480;-79
2023/03/10 05:21:08;;;;;;;49.63;20.63;;;1.60;99.90;;;;;;4976381;28;91922;-79
2023/03/10 05:23:36;;;;;;;51.67;17.45;;;1.60;99.90;;;;;;4976163;28;95734;-79
2023/03/10 05:26:09;;;;;;;62.50;22.23;;;1.60;99.90;;;;;;4975808;28;95386;-79
2023/03/10 05:28:36;;;;;;;56.05;18.23;;;1.70;99.90;;;;;;4974714;28;94964;-79
2023/03/10 05:31:09;;;;;;;53.17;19.30;;;1.70;99.90;;;;;;4992460;28;92507;-79
2023/03/10 05:33:36;;;;;;;65.15;24.88;;;1.70;99.90;;;;;;4975990;28;96211;-80
2023/03/10 05:36:08;;;;;;;69.35;20.90;;;1.70;99.90;;;;;;4975998;28;93142;-79
2023/03/10 05:38:37;;;;;;;74.05;22.42;;;1.70;99.90;;;;;;4977185;28;92454;-79
2023/03/10 05:41:07;;;;;;;66.28;21.58;;;1.60;99.90;;;;;;4975663;28;93231;-79
2023/03/10 05:43:35;;;;;;;75.15;20.70;;;1.60;99.90;;;;;;4975687;28;95400;-79
2023/03/10 05:46:03;;;;;;;56.78;19.27;;;1.60;99.90;;;;;;4992386;28;95713;-79
2023/03/10 05:48:33;;;;;;;79.15;22.58;;;1.60;99.90;;;;;;4944143;28;92633;-80
2023/03/10 05:51:04;;;;;;;81.57;24.02;;;1.60;99.90;;;;;;4959367;28;92644;-79
2023/03/10 05:53:34;;;;;;;78.13;21.25;;;1.60;99.90;;;;;;4974367;28;97518;-80
2023/03/10 05:56:12;;;;;;;90.30;25.98;;;1.60;99.90;;;;;;4959312;28;98020;-79
2023/03/10 05:58:41;;;;;;;97.20;25.75;;;1.60;99.90;;;;;;4992334;28;92514;-79
2023/03/10 06:01:09;;;;;;;86.70;25.25;;;1.60;99.90;;;;;;4959308;28;92543;-79
2023/03/10 06:03:37;;;;;;;80.80;24.40;;;1.50;99.90;;;;;;4976698;28;93255;-79
2023/03/10 06:06:05;;;;;;;113.93;27.85;;;1.50;99.90;;;;;;4974965;28;95761;-79
2023/03/10 06:08:32;;;;;;;73.97;23.10;;;1.50;99.90;;;;;;4975282;28;92709;-79
2023/03/10 06:11:00;;;;;;;88.40;24.90;;;1.50;99.90;;;;;;4975121;28;91854;-79
2023/03/10 06:13:27;;;;;;;93.80;31.88;;;1.50;99.90;;;;;;4976442;28;93116;-79
2023/03/10 06:16:02;;;;;;;109.88;25.58;;;1.60;99.90;;;;;;4958993;28;94129;-79
2023/03/10 06:18:30;;;;;;;89.00;26.35;;;1.70;99.90;;;;;;4958112;28;94961;-79
2023/03/10 06:20:57;;;;;;;85.75;26.90;;;1.70;99.90;;;;;;4974944;28;92522;-79
2023/03/10 06:23:25;;;;;;;75.78;23.33;;;1.70;99.90;;;;;;4974923;28;95490;-79
2023/03/10 06:26:00;;;;;;;76.90;24.20;;;1.70;99.90;;;;;;4974830;28;94577;-79
2023/03/10 06:28:32;;;;;;;79.30;22.98;;;1.70;99.90;;;;;;4991400;28;92642;-78
2023/03/10 06:31:00;;;;;;;80.85;25.55;;;1.70;99.90;;;;;;4976461;28;92441;-79
2023/03/10 06:33:28;;;;;;;67.97;23.92;;;1.70;99.90;;;;;;4976377;28;93247;-78
2023/03/10 06:35:55;;;;;;;65.93;22.60;;;1.70;99.90;;;;;;4991674;28;95763;-79
2023/03/10 06:38:22;;;;;;;69.28;23.48;;;1.80;99.90;;;;;;4974950;28;94258;-79
2023/03/10 06:40:49;;;;;;;63.10;23.15;;;1.80;99.90;;;;;;4975254;28;92534;-79
2023/03/10 06:43:16;;;;;;;66.90;21.65;;;1.80;99.90;;;;;;4973530;28;95617;-79
2023/03/10 06:45:45;;;;;;;64.43;21.52;;;1.90;99.90;;;;;;4974774;28;97917;-79
2023/03/10 06:48:13;;;;;;;44.28;15.70;;;1.80;99.90;;;;;;4974672;28;92532;-79
2023/03/10 06:50:47;;;;;;;57.57;22.10;;;1.90;99.90;;;;;;4991411;28;92614;-79
2023/03/10 06:53:19;;;;;;;52.95;23.85;;;1.90;99.90;;;;;;4975687;28;93318;-79
2023/03/10 06:56:01;;;;;;;55.10;21.75;;;1.90;99.90;;;;;;4976013;28;93461;-79
2023/03/10 06:58:30;;;;;;;55.10;20.73;;;1.90;99.90;;;;;;4976381;28;92936;-79
2023/03/10 07:00:57;;;;;;;46.53;19.85;;;1.90;99.90;;;;;;4990879;28;94031;-79
2023/03/10 07:03:27;;;;;;;45.53;17.63;;;1.90;99.90;;;;;;4991298;28;96127;-79
2023/03/10 07:05:55;;;;;;;41.05;17.15;;;1.90;99.90;;;;;;4975728;28;92469;-79
2023/03/10 07:08:22;;;;;;;48.20;20.25;;;2.00;99.90;;;;;;4957578;28;94985;-79
2023/03/10 07:10:49;;;;;;;45.97;22.92;;;2.00;99.90;;;;;;4974025;28;92466;-79
2023/03/10 07:13:18;;;;;;;41.90;18.35;;;2.10;99.90;;;;;;4974333;28;93246;-79
2023/03/10 07:15:45;;;;;;;46.65;20.27;;;2.10;99.90;;;;;;4975541;28;93263;-78
2023/03/10 07:18:12;;;;;;;44.50;19.02;;;2.10;99.90;;;;;;4973408;28;92600;-78
2023/03/10 07:20:43;;;;;;;49.65;19.55;;;2.20;99.90;;;;;;4975598;28;94097;-78
2023/03/10 07:23:11;;;;;;;34.10;15.18;;;2.20;99.90;;;;;;4990765;28;93275;-78
2023/03/10 07:25:39;;;;;;;46.53;19.90;;;2.10;99.90;;;;;;4974379;28;95618;-78
2023/03/10 07:28:07;;;;;;;39.70;17.90;;;2.20;99.90;;;;;;4975462;28;92631;-78
2023/03/10 07:30:35;;;;;;;43.95;20.40;;;2.20;99.90;;;;;;4974122;28;93491;-78
2023/03/10 07:33:02;;;;;;;41.85;19.08;;;2.20;99.90;;;;;;4972722;28;98363;-78
2023/03/10 07:35:29;;;;;;;38.88;16.20;;;2.30;99.90;;;;;;4973827;28;97981;-78
2023/03/10 07:37:56;;;;;;;40.03;18.20;;;2.30;99.90;;;;;;4975361;28;94276;-77
2023/03/10 07:40:23;;;;;;;36.28;18.48;;;2.30;99.90;;;;;;4956866;28;92569;-78
2023/03/10 07:42:53;;;;;;;40.00;18.13;;;2.30;99.90;;;;;;4974058;28;93620;-77
2023/03/10 07:45:24;;;;;;;38.65;17.15;;;2.30;99.90;;;;;;4974843;28;92534;-77
2023/03/10 07:47:53;;;;;;;37.55;18.30;;;2.30;99.90;;;;;;4975378;28;92427;-78
2023/03/10 07:50:20;;;;;;;37.70;18.48;;;2.40;99.90;;;;;;4975302;28;91730;-78
2023/03/10 07:52:47;;;;;;;40.70;22.52;;;2.40;99.90;;;;;;4973909;28;93220;-78
2023/03/10 07:55:15;;;;;;;34.97;18.17;;;2.40;99.90;;;;;;4989940;28;95597;-78
2023/03/10 07:57:42;;;;;;;38.47;19.77;;;2.40;99.90;;;;;;4974189;28;95147;-78
2023/03/10 08:00:10;;;;;;;34.47;15.77;;;2.50;99.90;;;;;;4973423;28;92524;-77
2023/03/10 08:02:40;;;;;;;36.38;19.52;;;2.40;99.90;;;;;;4973670;28;95987;-77
2023/03/10 08:05:09;;;;;;;39.35;17.65;;;2.40;99.90;;;;;;4973410;28;95672;-77
2023/03/10 08:07:36;;;;;;;31.95;15.68;;;2.50;99.90;;;;;;4973589;28;93070;-77
2023/03/10 08:10:04;;;;;;;32.30;17.27;;;2.50;99.90;;;;;;4978254;28;93166;-77
2023/03/10 08:12:32;;;;;;;39.53;18.65;;;2.40;99.90;;;;;;4993687;28;93299;-77
2023/03/10 08:14:59;;;;;;;33.13;16.75;;;2.50;99.90;;;;;;4993745;28;93090;-77
2023/03/10 08:17:32;;;;;;;36.28;18.38;;;2.50;99.90;;;;;;4976781;28;92555;-77
2023/03/10 08:19:59;;;;;;;34.40;18.25;;;2.60;99.90;;;;;;4993248;28;92773;-77
2023/03/10 08:22:27;;;;;;;34.10;18.40;;;2.60;99.90;;;;;;4993155;28;95775;-77
2023/03/10 08:24:55;;;;;;;36.30;17.30;;;2.60;99.90;;;;;;4994544;28;95598;-77
2023/03/10 08:27:22;;;;;;;32.72;15.27;;;2.70;99.90;;;;;;4994475;28;92493;-77
2023/03/10 08:29:49;;;;;;;26.15;13.50;;;2.70;99.90;;;;;;4978945;28;92597;-77
2023/03/10 08:32:16;;;;;;;36.60;19.70;;;2.70;99.90;;;;;;4997761;28;97847;-77
2023/03/10 08:34:44;;;;;;;23.70;11.63;;;2.70;99.90;;;;;;4980362;28;93176;-76
2023/03/10 08:37:11;;;;;;;31.98;17.50;;;2.70;99.90;;;;;;4996459;28;92446;-77
2023/03/10 08:39:38;;;;;;;31.00;16.88;;;2.70;99.90;;;;;;4980710;28;91885;-76
2023/03/10 08:42:06;;;;;;;32.47;16.65;;;2.90;99.90;;;;;;4979923;28;93059;-76
2023/03/10 08:44:33;;;;;;;23.33;11.50;;;3.00;99.90;;;;;;4980114;28;92906;-77
2023/03/10 08:46:59;;;;;;;30.50;18.00;;;3.00;99.90;;;;;;4996841;28;94918;-77
2023/03/10 08:49:27;;;;;;;29.95;15.88;;;3.00;99.90;;;;;;4997958;28;92755;-77
2023/03/10 08:51:54;;;;;;;31.90;15.48;;;3.10;99.90;;;;;;4979698;28;95777;-77
2023/03/10 08:54:21;;;;;;;31.88;18.33;;;3.00;99.90;;;;;;4997430;28;93054;-77
2023/03/10 08:56:48;;;;;;;26.95;15.48;;;3.10;99.90;;;;;;4979797;28;92466;-76
2023/03/10 08:59:17;;;;;;;28.70;16.15;;;3.10;99.90;;;;;;4997625;28;92481;-76
2023/03/10 09:01:44;;;;;;;33.83;18.40;;;3.10;99.90;;;;;;4997635;28;93337;-76
2023/03/10 09:04:12;;;;;;;27.23;15.88;;;3.00;99.90;;;;;;4964110;28;95850;-76
2023/03/10 09:06:39;;;;;;;30.55;15.60;;;3.00;99.90;;;;;;4997506;28;92408;-76
2023/03/10 09:09:09;;;;;;;27.15;15.15;;;3.00;99.90;;;;;;4997673;28;92476;-76
2023/03/10 09:11:38;;;;;;;24.92;15.13;;;3.00;99.90;;;;;;4990882;28;95607;-76
2023/03/10 09:14:08;;;;;;;26.58;15.32;;;3.00;99.90;;;;;;4979361;28;98222;-76
2023/03/10 09:16:37;;;;;;;33.10;16.20;;;3.00;99.90;;;;;;4979283;28;92964;-76
2023/03/10 09:19:04;;;;;;;24.77;13.73;;;3.00;99.90;;;;;;4979502;28;92543;-76
2023/03/10 09:21:32;;;;;;;25.30;14.05;;;2.90;99.90;;;;;;4997021;28;93239;-76
2023/03/10 09:24:02;;;;;;;28.17;14.93;;;2.90;99.90;;;;;;4995626;28;103429;-76
2023/03/10 09:26:29;;;;;;;25.83;15.93;;;2.90;99.90;;;;;;4996981;28;92469;-76
2023/03/10 09:28:56;;;;;;;29.02;15.98;;;2.90;99.90;;;;;;4979960;28;91669;-76
2023/03/10 09:31:35;;;;;;;29.63;16.10;;;2.90;99.90;;;;;;4995362;28;95793;-76
2023/03/10 09:34:02;;;;;;;23.98;14.38;;;3.00;99.90;;;;;;4997289;28;93076;-76
2023/03/10 09:36:30;;;;;;;27.55;15.88;;;3.00;99.90;;;;;;4995777;28;94806;-76
2023/03/10 09:38:58;;;;;;;26.15;14.88;;;3.00;99.90;;;;;;4979344;28;93214;-75
2023/03/10 09:41:57;;;;;;;18.58;10.73;;;3.10;99.90;;;;;;4996052;28;93205;-75
2023/03/10 09:44:45;;;;;;;25.83;14.25;;;3.10;99.90;;;;;;4996830;28;92924;-75
2023/03/10 09:47:34;;;;;;;29.42;15.07;;;3.10;99.90;;;;;;4997251;28;92842;-75
2023/03/10 09:50:01;;;;;;;21.90;12.43;;;3.10;99.90;;;;;;4978906;28;92701;-75
2023/03/10 09:52:43;;;;;;;31.02;17.35;;;3.10;99.90;;;;;;4996601;28;93283;-75
2023/03/10 09:55:34;;;;;;;27.42;15.27;;;3.10;99.90;;;;;;4997282;28;93060;-76
2023/03/10 09:58:02;;;;;;;25.30;14.75;;;3.20;99.90;;;;;;4996995;28;92361;-76
2023/03/10 10:00:37;;;;;;;25.85;15.68;;;3.20;99.90;;;;;;4996210;28;99794;-76
2023/03/10 10:03:06;;;;;;;26.75;15.30;;;3.20;99.90;;;;;;4995621;28;95622;-75
2023/03/10 10:05:37;;;;;;;29.52;16.60;;;3.20;99.90;;;;;;4996440;28;95462;-75
2023/03/10 10:08:26;;;;;;;25.40;14.15;;;3.30;99.90;;;;;;4996778;28;92413;-75
2023/03/10 10:10:57;;;;;;;27.80;17.25;;;3.40;99.90;;;;;;4994892;28;92519;-75
2023/03/10 10:13:28;;;;;;;28.23;17.58;;;3.30;99.90;;;;;;4996270;28;93279;-75
2023/03/10 10:16:11;;;;;;;28.27;18.35;;;3.40;99.90;;;;;;4978376;28;95720;-75
2023/03/10 10:19:13;;;;;;;32.15;17.55;;;3.40;99.90;;;;;;4996863;28;93649;-75
2023/03/10 10:22:10;;;;;;;30.20;18.10;;;3.40;99.90;;;;;;4995703;28;92333;-75
2023/03/10 10:24:39;;;;;;;26.52;16.88;;;3.40;99.90;;;;;;4978418;28;93243;-75
2023/03/10 10:27:06;;;;;;;27.25;16.42;;;3.30;99.90;;;;;;4978829;28;92547;-75
2023/03/10 10:29:36;;;;;;;30.88;18.90;;;3.40;99.90;;;;;;4976953;28;94876;-76
2023/03/10 10:32:06;;;;;;;31.50;19.33;;;3.40;99.90;;;;;;4996209;28;92963;-76
2023/03/10 10:34:36;;;;;;;31.73;17.73;;;3.40;99.90;;;;;;4995792;28;92480;-76
2023/03/10 10:37:29;;;;;;;32.10;18.85;;;3.50;99.90;;;;;;4996003;28;93149;-76
2023/03/10 10:39:59;;;;;;;25.27;14.52;;;3.50;99.90;;;;;;4996451;28;92484;-76
2023/03/10 10:42:31;;;;;;;29.88;16.42;;;3.50;99.90;;;;;;4978183;28;92434;-76
2023/03/10 10:45:01;;;;;;;30.80;17.02;;;3.50;99.90;;;;;;4994780;28;92443;-76
2023/03/10 10:47:33;;;;;;;21.13;14.10;;;3.40;99.90;;;;;;4978095;28;95812;-76
2023/03/10 10:50:15;;;;;;;25.95;15.27;;;3.40;99.90;;;;;;4996317;28;92693;-76
2023/03/10 10:52:49;;;;;;;21.42;12.43;;;3.30;99.90;;;;;;4977375;28;92475;-76
2023/03/10 10:55:34;;;;;;;27.63;16.75;;;3.30;99.90;;;;;;4994431;28;95674;-76
2023/03/10 10:58:05;;;;;;;21.92;13.30;;;3.40;99.90;;;;;;4996031;28;95456;-76
2023/03/10 11:00:36;;;;;;;28.50;16.90;;;3.40;99.90;;;;;;4994388;28;93037;-76
2023/03/10 11:03:26;;;;;;;27.65;17.55;;;3.40;99.90;;;;;;4996395;28;92564;-76
2023/03/10 11:05:54;;;;;;;27.88;16.45;;;3.50;99.90;;;;;;4995375;28;93233;-76
2023/03/10 11:08:36;;;;;;;26.67;16.02;;;3.50;99.90;;;;;;4995726;28;92990;-76
2023/03/10 11:11:24;;;;;;;30.83;18.08;;;3.50;99.90;;;;;;4995782;28;92804;-76
2023/03/10 11:14:04;;;;;;;27.20;15.70;;;3.50;99.90;;;;;;4978182;28;92213;-76
2023/03/10 11:16:55;;;;;;;26.77;14.68;;;3.50;99.90;;;;;;4995697;28;93345;-76
2023/03/10 11:19:30;;;;;;;25.58;15.57;;;3.50;99.90;;;;;;4977863;28;92519;-76
2023/03/10 11:22:28;;;;;;;26.40;16.27;;;3.50;99.90;;;;;;4994504;28;94853;-76
2023/03/10 11:25:24;;;;;;;24.42;15.10;;;3.50;99.90;;;;;;4995627;28;92417;-76
2023/03/10 11:28:16;;;;;;;24.83;14.57;;;3.40;99.90;;;;;;4993771;28;95843;-76
2023/03/10 11:31:08;;;;;;;23.52;16.88;;;3.30;99.90;;;;;;4977306;28;93474;-76
2023/03/10 11:34:06;;;;;;;23.17;14.30;;;3.30;99.90;;;;;;4993684;28;92446;-76
2023/03/10 11:36:47;;;;;;;28.23;18.85;;;3.30;99.90;;;;;;4995734;28;93127;-76
2023/03/10 11:39:31;;;;;;;27.65;16.58;;;3.30;99.90;;;;;;4977102;28;95930;-76
2023/03/10 11:42:14;;;;;;;24.40;15.65;;;3.30;99.90;;;;;;4995612;28;93480;-76
2023/03/10 11:44:57;;;;;;;24.70;14.67;;;3.20;99.90;;;;;;4995280;28;92674;-76
2023/03/10 11:48:05;;;;;;;23.67;13.85;;;3.30;99.90;;;;;;4995425;28;92383;-76
2023/03/10 11:50:48;;;;;;;24.25;14.65;;;3.20;99.90;;;;;;4975673;28;96617;-78
2023/03/10 11:53:32;;;;;;;23.95;14.73;;;3.30;99.90;;;;;;4993584;28;98074;-77
2023/03/10 11:56:00;;;;;;;26.65;16.08;;;3.30;99.90;;;;;;4995280;28;93105;-76
2023/03/10 11:58:42;;;;;;;17.95;11.32;;;3.30;99.90;;;;;;4995038;28;92458;-77
2023/03/10 12:01:14;;;;;;;26.23;15.02;;;3.30;99.90;;;;;;4976968;28;95742;-77
2023/03/10 12:04:04;;;;;;;26.52;17.45;;;3.20;99.90;;;;;;4994705;28;93021;-77
2023/03/10 12:07:08;;;;;;;19.27;12.88;;;3.20;99.90;;;;;;4995100;28;92363;-77
2023/03/10 12:09:50;;;;;;;23.15;13.60;;;3.30;99.90;;;;;;4951507;28;91791;-77
2023/03/10 12:12:36;;;;;;;21.30;13.15;;;3.30;99.90;;;;;;4994517;28;93119;-77
2023/03/10 12:15:25;;;;;;;16.50;10.38;;;3.30;99.90;;;;;;4976703;28;94781;-77
2023/03/10 12:17:53;;;;;;;27.92;16.42;;;3.20;99.90;;;;;;4993283;28;94805;-77
2023/03/10 12:20:20;;;;;;;27.52;16.10;;;3.10;99.90;;;;;;4976474;28;97185;-77
2023/03/10 12:22:50;;;;;;;24.27;13.93;;;3.10;99.90;;;;;;4994420;28;93432;-77
2023/03/10 12:25:29;;;;;;;29.15;16.55;;;3.10;99.90;;;;;;4976557;28;95799;-77
2023/03/10 12:28:15;;;;;;;21.63;12.68;;;3.00;99.90;;;;;;4976622;28;93190;-77
2023/03/10 12:30:56;;;;;;;34.05;18.50;;;2.80;99.90;;;;;;4976337;28;92482;-77
2023/03/10 12:33:41;;;;;;;25.65;14.70;;;2.60;99.90;;;;;;4976418;28;95899;-77
2023/03/10 12:36:33;;;;;;;36.63;17.17;;;2.40;99.90;;;;;;4993515;28;94385;-78
2023/03/10 12:39:27;;;;;;;35.58;17.85;;;2.40;99.90;;;;;;4976924;28;92494;-77
2023/03/10 12:42:02;;;;;;;40.08;19.17;;;2.40;99.90;;;;;;4994527;28;92458;-77
2023/03/10 12:44:29;;;;;;;35.22;17.08;;;2.40;99.90;;;;;;4975686;28;95681;-78
2023/03/10 12:47:19;;;;;;;35.05;16.55;;;2.50;99.90;;;;;;4992535;28;97960;-78
2023/03/10 12:49:48;;;;;;;40.72;18.08;;;2.50;99.90;;;;;;4976701;28;93259;-78
2023/03/10 12:52:43;;;;;;;37.03;16.33;;;2.50;99.90;;;;;;4994224;28;92436;-78
2023/03/10 12:55:14;;;;;;;40.80;18.88;;;2.50;99.90;;;;;;4976259;28;94893;-78
2023/03/10 12:57:55;;;;;;;36.05;16.25;;;2.50;99.90;;;;;;4994437;28;93046;-78
2023/03/10 13:00:25;;;;;;;39.45;17.13;;;2.60;99.90;;;;;;4994154;28;92379;-78